Time;durP1;ratioP1;P1;durP2;ratioP2;P2;SDS_P1;SDS_P2;PMS_P1;PMS_P2;Temp;Humidity;BMP_temperature;BMP_pressure;BME280_temperature;BME280_humidity;BME280_pressure;Samples;Min_cycle;Max_cycle;Signal;HPM_P1;HPM_P2
2022/01/03 00:00:12;;;;;;;2.00;0.20;;;;;;;8.92;88.23;99929.91;107176;1285;71479;-79
2022/01/03 00:02:39;;;;;;;0.40;0.30;;;;;;;8.97;87.57;99929.99;107156;1285;73112;-80
2022/01/03 00:05:08;;;;;;;0.90;0.40;;;;;;;9.04;87.10;99929.10;107375;1284;59517;-79
2022/01/03 00:10:03;;;;;;;0.50;0.30;;;;;;;9.12;87.15;99925.63;107506;1271;72639;-80
2022/01/03 00:12:30;;;;;;;0.50;0.40;;;;;;;9.13;86.57;99918.79;107177;1275;73096;-83
2022/01/03 00:14:58;;;;;;;2.30;0.50;;;;;;;9.21;86.52;99925.60;106982;1287;74202;-81
2022/01/03 00:17:25;;;;;;;2.30;0.60;;;;;;;9.24;86.52;99919.79;107320;1285;63323;-80
2022/01/03 00:19:51;;;;;;;0.50;0.20;;;;;;;9.28;86.37;99923.37;107656;1272;60404;-79
2022/01/03 00:25:17;;;;;;;1.00;0.30;;;;;;;9.32;86.26;99926.73;107277;1272;66651;-80
2022/01/03 00:28:07;;;;;;;2.50;0.90;;;;;;;9.37;86.26;99924.38;107444;1284;71929;-81
2022/01/03 00:30:38;;;;;;;2.70;0.50;;;;;;;9.42;85.92;99930.80;107406;1285;62248;-80
2022/01/03 00:33:06;;;;;;;1.30;0.60;;;;;;;9.48;85.93;99930.13;107488;1284;61145;-82
2022/01/03 00:35:42;;;;;;;1.50;0.70;;;;;;;9.53;85.34;99929.45;107103;1284;75247;-79
2022/01/03 00:38:11;;;;;;;2.00;0.50;;;;;;;9.61;85.26;99925.71;107441;1284;70235;-78
2022/01/03 00:40:38;;;;;;;2.40;0.70;;;;;;;9.67;85.03;99921.25;107366;1284;72156;-81
2022/01/03 00:43:06;;;;;;;3.50;1.10;;;;;;;9.73;84.27;99927.38;107426;1284;60657;-80
2022/01/03 00:45:32;;;;;;;4.30;1.30;;;;;;;9.80;83.37;99938.52;107368;1283;60622;-80
2022/01/03 00:47:59;;;;;;;2.50;0.60;;;;;;;9.88;83.32;99913.71;107188;1287;73833;-80
2022/01/03 00:50:27;;;;;;;2.20;0.80;;;;;;;9.92;82.99;99913.42;107347;1284;71161;-79
2022/01/03 00:52:57;;;;;;;2.70;0.80;;;;;;;9.95;82.63;99912.80;107437;1284;73968;-77
2022/01/03 00:55:24;;;;;;;1.40;0.80;;;;;;;9.99;82.00;99913.98;107252;1285;62283;-79
2022/01/03 00:58:14;;;;;;;4.80;0.70;;;;;;;10.01;81.45;99918.97;107389;1284;58238;-79
2022/01/03 01:00:42;;;;;;;2.90;0.70;;;;;;;10.04;81.52;99908.95;107234;1285;75255;-82
2022/01/03 01:03:20;;;;;;;1.40;0.70;;;;;;;10.05;80.96;99929.48;107265;1285;72805;-79
2022/01/03 01:06:10;;;;;;;5.00;0.90;;;;;;;10.09;80.76;99927.52;103946;1302;600365;-84
2022/01/03 01:08:38;;;;;;;1.80;0.60;;;;;;;10.08;81.06;99917.80;106921;1274;61482;-83
2022/01/03 01:11:07;;;;;;;2.50;0.80;;;;;;;10.05;80.96;99917.45;107191;1277;134814;-77
2022/01/03 01:13:36;;;;;;;3.90;0.70;;;;;;;10.06;81.26;99930.98;107024;1287;72552;-77
2022/01/03 01:16:07;;;;;;;2.10;0.50;;;;;;;10.04;81.51;99942.55;107035;1287;72531;-77
2022/01/03 01:18:36;;;;;;;6.10;0.90;;;;;;;9.97;82.59;99949.67;107099;1285;170105;-78
2022/01/03 01:21:05;;;;;;;2.30;1.30;;;;;;;9.83;84.48;99947.70;107505;1283;62223;-81
2022/01/03 01:23:32;;;;;;;4.40;0.70;;;;;;;9.64;85.36;99958.20;107516;1283;60636;-80
2022/01/03 01:28:44;;;;;;;2.20;0.90;;;;;;;9.40;86.40;99959.52;107329;1284;72456;-79
2022/01/03 01:31:19;;;;;;;2.80;0.50;;;;;;;9.32;86.38;99972.38;107390;1286;72149;-81
2022/01/03 01:33:50;;;;;;;3.60;1.10;;;;;;;9.23;87.88;99965.05;107074;1287;61379;-81
2022/01/03 01:36:18;;;;;;;3.80;0.80;;;;;;;9.13;87.81;99971.52;107312;1286;60182;-80
2022/01/03 01:38:51;;;;;;;6.00;0.90;;;;;;;9.04;87.76;99982.33;108327;1276;73534;-79
2022/01/03 01:41:19;;;;;;;6.30;1.30;;;;;;;8.93;88.61;99986.09;108126;1276;71179;-76
2022/01/03 01:43:48;;;;;;;4.00;0.70;;;;;;;8.81;89.85;100014.94;108172;1275;74318;-79
2022/01/03 01:46:18;;;;;;;4.90;1.00;;;;;;;8.66;95.43;100050.96;108311;1276;62072;-79
2022/01/03 01:48:48;;;;;;;1.90;0.60;;;;;;;8.31;99.91;100026.70;108147;1276;61655;-78
2022/01/03 01:51:18;;;;;;;1.90;0.40;;;;;;;8.02;100.00;100043.40;108261;1276;73435;-79
2022/01/03 01:53:49;;;;;;;0.80;0.30;;;;;;;7.86;100.00;100056.73;108330;1276;70484;-80
2022/01/03 01:56:21;;;;;;;2.80;0.60;;;;;;;7.74;100.00;100062.27;108268;1276;73687;-81
2022/01/03 01:59:20;;;;;;;3.00;0.50;;;;;;;7.67;100.00;100044.87;108142;1275;62084;-78
2022/01/03 02:01:50;;;;;;;2.70;0.50;;;;;;;7.61;100.00;100061.42;108333;1276;61583;-81
2022/01/03 02:04:21;;;;;;;0.80;0.30;;;;;;;7.57;100.00;100045.02;108374;1276;73405;-83
2022/01/03 02:06:48;;;;;;;2.00;0.50;;;;;;;7.53;100.00;100063.05;108360;1263;72513;-79
2022/01/03 02:09:20;;;;;;;1.20;0.70;;;;;;;7.50;100.00;100065.47;108407;1263;76225;-81
2022/01/03 02:12:16;;;;;;;0.80;0.40;;;;;;;7.49;100.00;100059.38;103500;1300;601261;-80
2022/01/03 02:14:44;;;;;;;2.50;0.60;;;;;;;7.43;100.00;100058.62;105593;1276;62465;-78
2022/01/03 02:26:53;;;;;;;3.30;0.80;;;;;;;7.50;100.00;100073.67;107338;1279;161111;31
2022/01/03 02:35:17;;;;;;;5.90;0.60;;;;;;;7.68;100.00;100073.51;107132;1277;71058;-80
2022/01/03 02:37:45;;;;;;;4.70;1.50;;;;;;;7.70;100.00;100077.13;106521;1281;72486;-79
2022/01/03 02:40:23;;;;;;;6.00;1.10;;;;;;;7.74;100.00;100080.30;106554;1293;74028;-79
2022/01/03 02:42:56;;;;;;;7.00;0.90;;;;;;;7.78;100.00;100079.20;106681;1292;62724;-79
2022/01/03 02:45:25;;;;;;;6.60;1.80;;;;;;;7.80;99.99;100083.23;106654;1291;61784;-79
2022/01/03 02:48:01;;;;;;;2.90;0.70;;;;;;;7.86;100.00;100089.52;106561;1292;73287;-80
2022/01/03 02:50:31;;;;;;;11.00;1.60;;;;;;;7.86;99.86;100088.58;106347;1293;70952;-79
2022/01/03 02:52:58;;;;;;;4.70;1.10;;;;;;;7.88;98.99;100086.92;106428;1292;75156;-79
2022/01/03 02:55:26;;;;;;;4.90;0.60;;;;;;;7.89;99.24;100089.58;106679;1292;62390;-79
2022/01/03 02:57:55;;;;;;;2.90;0.70;;;;;;;7.92;98.82;100096.84;106413;1291;60045;-80
2022/01/03 03:00:26;;;;;;;7.00;1.00;;;;;;;7.96;98.43;100103.42;107893;1281;74513;-80
2022/01/03 03:02:53;;;;;;;5.60;1.00;;;;;;;8.00;97.65;100103.23;107919;1281;72360;-80
2022/01/03 03:05:20;;;;;;;5.20;0.70;;;;;;;8.06;95.96;100116.27;107678;1281;72883;-82
2022/01/03 03:07:48;;;;;;;7.60;1.00;;;;;;;8.15;95.97;100106.23;107532;1281;62453;-83
2022/01/03 03:10:25;;;;;;;4.70;0.80;;;;;;;8.19;96.34;100108.61;107888;1281;61106;-83
2022/01/03 03:13:02;;;;;;;9.60;1.30;;;;;;;8.21;95.43;100118.98;107485;1282;73413;-84
2022/01/03 03:15:29;;;;;;;7.00;1.40;;;;;;;8.25;95.64;100110.77;107834;1281;70336;-82
2022/01/03 03:18:01;;;;;;;6.20;0.90;;;;;;;8.29;95.85;100112.10;107965;1281;73287;-83
2022/01/03 03:20:35;;;;;;;5.80;0.90;;;;;;;8.30;95.92;100129.04;107877;1281;61964;-82
2022/01/03 03:23:02;;;;;;;3.70;0.90;;;;;;;8.31;95.77;100117.44;107892;1281;60289;-82
2022/01/03 03:25:32;;;;;;;6.30;1.00;;;;;;;8.33;95.78;100124.83;107770;1282;73413;-82
2022/01/03 03:28:03;;;;;;;8.20;1.10;;;;;;;8.34;96.31;100134.40;107986;1282;73898;-82
2022/01/03 03:33:11;;;;;;;6.50;1.00;;;;;;;8.35;96.97;100129.83;107880;1267;62681;-79
2022/01/03 03:35:57;;;;;;;7.60;1.40;;;;;;;8.34;96.99;100131.59;107842;1268;60832;-80
2022/01/03 03:38:25;;;;;;;6.30;1.80;;;;;;;8.35;96.54;100134.06;107844;1267;73426;-81
2022/01/03 03:43:30;;;;;;;8.90;1.50;;;;;;;8.42;96.27;100127.94;108044;1268;74062;-81
2022/01/03 03:46:16;;;;;;;4.80;1.50;;;;;;;8.49;95.54;100134.87;104667;1300;601585;-81
2022/01/03 03:48:43;;;;;;;7.50;1.70;;;;;;;8.48;95.23;100120.70;106965;1276;136287;-76
2022/01/03 03:51:10;;;;;;;17.70;1.50;;;;;;;8.51;94.71;100124.71;107356;1277;57147;-81
2022/01/03 03:53:36;;;;;;;13.50;1.60;;;;;;;8.54;94.04;100134.98;107261;1274;56769;-79
2022/01/03 03:56:03;;;;;;;4.40;1.30;;;;;;;8.59;94.13;100135.67;107463;1276;73010;-79
2022/01/03 03:58:30;;;;;;;5.80;1.00;;;;;;;8.61;93.88;100128.73;107290;1286;72931;-82
2022/01/03 04:00:56;;;;;;;7.30;1.30;;;;;;;8.61;94.20;100129.23;107207;1286;191930;-81
2022/01/03 04:03:36;;;;;;;8.70;1.40;;;;;;;8.62;93.57;100127.05;107414;1285;60391;-82
2022/01/03 04:06:03;;;;;;;7.30;1.50;;;;;;;8.62;93.78;100131.48;107530;1284;71646;-81
2022/01/03 04:08:30;;;;;;;6.90;1.50;;;;;;;8.62;93.51;100124.02;107501;1284;71476;-80
2022/01/03 04:10:58;;;;;;;9.60;1.90;;;;;;;8.65;93.34;100125.98;107670;1273;73008;-81
2022/01/03 04:13:25;;;;;;;5.00;1.30;;;;;;;8.64;92.85;100128.15;107519;1273;65727;-83
2022/01/03 04:15:52;;;;;;;4.70;1.40;;;;;;;8.66;92.14;100133.43;107603;1271;138478;-80
2022/01/03 04:18:18;;;;;;;11.60;2.10;;;;;;;8.71;91.60;100143.58;107589;1274;75013;-81
2022/01/03 04:20:48;;;;;;;9.20;2.40;;;;;;;8.71;91.59;100129.14;107571;1273;59233;-80
2022/01/03 04:23:16;;;;;;;8.00;1.10;;;;;;;8.76;91.53;100126.42;107409;1274;73077;-79
2022/01/03 04:25:42;;;;;;;7.60;1.10;;;;;;;8.76;90.99;100140.90;107499;1285;62024;-83
2022/01/03 04:28:09;;;;;;;7.90;1.80;;;;;;;8.79;90.79;100135.16;107530;1285;57457;-81
2022/01/03 04:30:36;;;;;;;11.40;1.20;;;;;;;8.81;90.13;100135.56;107530;1286;74322;-81
2022/01/03 04:33:03;;;;;;;13.00;1.80;;;;;;;8.83;89.68;100131.48;107112;1287;71558;-79
2022/01/03 04:35:29;;;;;;;6.30;1.00;;;;;;;8.84;89.60;100124.98;107387;1285;72847;-81
2022/01/03 04:37:56;;;;;;;6.70;1.40;;;;;;;8.84;89.56;100123.25;107255;1287;62327;-82
2022/01/03 04:40:22;;;;;;;13.30;1.90;;;;;;;8.85;89.09;100129.00;108166;1278;57564;-80
2022/01/03 04:42:51;;;;;;;8.10;1.90;;;;;;;8.84;89.08;100126.02;108179;1279;57406;-76
2022/01/03 04:45:18;;;;;;;4.30;1.00;;;;;;;8.86;88.25;100130.62;108171;1278;71511;-79
2022/01/03 04:47:44;;;;;;;10.70;2.40;;;;;;;8.90;87.99;100120.62;108203;1280;76006;-78
2022/01/03 04:50:11;;;;;;;8.20;1.20;;;;;;;8.92;88.39;100126.19;108144;1278;57574;-80
2022/01/03 04:52:38;;;;;;;7.20;1.60;;;;;;;8.93;88.05;100123.77;108139;1277;57781;-77
2022/01/03 04:55:05;;;;;;;7.20;1.20;;;;;;;8.93;87.59;100119.04;108215;1278;74886;-78
2022/01/03 04:57:32;;;;;;;9.90;1.20;;;;;;;8.95;87.30;100112.81;108205;1280;71325;-81
2022/01/03 04:59:58;;;;;;;18.90;1.80;;;;;;;8.95;86.55;100118.59;108156;1279;72998;-79
2022/01/03 05:02:25;;;;;;;9.60;1.50;;;;;;;8.98;86.82;100122.63;108180;1279;62265;-79
2022/01/03 05:04:51;;;;;;;13.90;1.60;;;;;;;8.96;87.17;100128.83;107802;1279;60613;-79
2022/01/03 05:07:18;;;;;;;9.30;1.30;;;;;;;8.97;86.50;100121.55;108174;1279;57438;-79
2022/01/03 05:09:44;;;;;;;9.40;1.20;;;;;;;8.97;85.90;100129.13;108122;1279;57591;-79
2022/01/03 05:12:11;;;;;;;7.60;1.30;;;;;;;8.97;86.06;100139.10;108173;1279;58138;-77
2022/01/03 05:14:39;;;;;;;7.50;1.10;;;;;;;8.98;85.97;100139.95;108123;1279;62356;-74
2022/01/03 05:17:06;;;;;;;12.10;1.70;;;;;;;8.97;85.83;100140.57;108183;1279;60748;-76
2022/01/03 05:19:32;;;;;;;12.00;1.50;;;;;;;8.97;86.26;100135.67;108184;1278;57826;-80
2022/01/03 05:21:59;;;;;;;14.60;1.90;;;;;;;8.94;86.81;100135.59;108221;1279;57457;-76
2022/01/03 05:24:25;;;;;;;9.00;1.50;;;;;;;8.91;86.54;100134.20;107871;1279;73182;-79
2022/01/03 05:26:52;;;;;;;5.00;1.40;;;;;;;8.90;86.81;100138.44;107955;1280;63332;-80
2022/01/03 05:29:19;;;;;;;9.40;1.50;;;;;;;8.87;86.69;100144.38;108105;1279;60642;-77
2022/01/03 05:31:46;;;;;;;10.30;1.20;;;;;;;8.87;86.57;100141.79;108190;1280;73499;-81
2022/01/03 05:34:14;;;;;;;10.00;1.10;;;;;;;8.86;86.87;100152.63;108138;1279;72447;-80
2022/01/03 05:36:40;;;;;;;6.70;1.10;;;;;;;8.85;87.32;100145.33;108083;1280;72898;-76
2022/01/03 05:39:07;;;;;;;8.60;1.40;;;;;;;8.82;86.79;100147.14;108147;1279;57478;-80
2022/01/03 05:41:33;;;;;;;11.20;1.60;;;;;;;8.80;87.36;100147.88;108131;1279;57351;-79
2022/01/03 05:44:00;;;;;;;9.80;1.50;;;;;;;8.78;87.72;100159.20;107814;1279;73505;-80
2022/01/03 05:46:26;;;;;;;11.40;1.60;;;;;;;8.76;87.97;100161.77;108136;1278;58276;-76
2022/01/03 05:48:53;;;;;;;12.40;3.50;;;;;;;8.74;88.97;100159.20;108142;1279;73929;-76
2022/01/03 05:51:20;;;;;;;8.10;1.80;;;;;;;8.69;89.53;100157.94;108151;1279;62767;-77
2022/01/03 05:53:46;;;;;;;12.10;1.90;;;;;;;8.64;89.26;100146.90;108084;1279;60839;-79
2022/01/03 05:56:13;;;;;;;17.80;2.40;;;;;;;8.62;89.07;100151.91;108165;1279;73424;-77
2022/01/03 05:58:39;;;;;;;8.50;1.80;;;;;;;8.61;88.65;100150.05;108019;1280;57458;-77
2022/01/03 06:01:06;;;;;;;8.40;1.60;;;;;;;8.62;87.58;100154.67;108186;1279;57488;-77
2022/01/03 06:03:38;;;;;;;8.80;1.70;;;;;;;8.65;87.11;100153.01;107965;1279;62979;-77
2022/01/03 06:08:36;;;;;;;9.20;1.80;;;;;;;8.69;85.90;100146.30;107981;1280;73405;-78
2022/01/03 06:11:03;;;;;;;8.40;1.90;;;;;;;8.72;85.33;100151.97;108198;1279;72454;-80
2022/01/03 06:13:30;;;;;;;15.40;2.30;;;;;;;8.75;84.68;100147.92;108175;1279;73137;-76
2022/01/03 06:15:57;;;;;;;7.10;2.20;;;;;;;8.78;84.47;100154.11;107930;1280;62205;-80
2022/01/03 06:18:24;;;;;;;8.10;1.60;;;;;;;8.80;84.21;100144.20;108117;1279;61626;-78
2022/01/03 06:20:51;;;;;;;11.40;2.40;;;;;;;8.83;84.31;100145.95;108210;1279;74520;-79
2022/01/03 06:23:19;;;;;;;7.90;1.80;;;;;;;8.83;85.27;100155.46;107692;1281;71498;-81
2022/01/03 06:25:46;;;;;;;9.60;2.50;;;;;;;8.80;85.80;100154.18;108408;1270;73344;-77
2022/01/03 06:28:13;;;;;;;18.80;4.20;;;;;;;8.76;85.89;100155.41;108565;1273;61908;-80
2022/01/03 06:30:41;;;;;;;17.80;2.40;;;;;;;8.73;86.03;100150.45;108557;1273;59239;-80
2022/01/03 06:33:09;;;;;;;9.40;2.90;;;;;;;8.70;86.28;100142.17;108458;1274;72409;-80
2022/01/03 06:35:36;;;;;;;7.50;1.90;;;;;;;8.67;85.69;100148.27;108324;1276;70923;-80
2022/01/03 06:38:04;;;;;;;6.90;2.10;;;;;;;8.66;86.02;100144.23;108160;1273;73812;-78
2022/01/03 06:40:30;;;;;;;19.20;2.10;;;;;;;8.63;85.88;100136.79;108481;1273;63290;-77
2022/01/03 06:42:57;;;;;;;6.70;1.30;;;;;;;8.61;86.12;100143.54;108529;1273;57705;-77
2022/01/03 06:45:23;;;;;;;9.00;2.70;;;;;;;8.61;85.53;100149.73;108398;1275;74795;-78
2022/01/03 06:47:55;;;;;;;12.60;2.50;;;;;;;8.63;84.58;100156.20;108527;1273;71418;-78
2022/01/03 06:50:22;;;;;;;11.60;1.80;;;;;;;8.66;84.43;100175.22;108511;1274;71868;-76
2022/01/03 06:52:48;;;;;;;12.30;1.90;;;;;;;8.70;84.41;100169.27;108382;1276;60495;-76
2022/01/03 06:55:15;;;;;;;8.90;1.60;;;;;;;8.73;84.25;100166.52;108488;1274;61661;-78
2022/01/03 06:57:43;;;;;;;8.30;1.70;;;;;;;8.76;83.93;100163.71;108556;1273;73169;-76
2022/01/03 07:00:10;;;;;;;10.30;1.90;;;;;;;8.78;83.28;100173.48;108533;1274;57970;-80
2022/01/03 07:02:40;;;;;;;10.30;1.90;;;;;;;8.80;83.86;100166.75;108549;1273;73299;-80
2022/01/03 07:05:08;;;;;;;9.60;3.40;;;;;;;8.80;83.98;100169.91;108481;1274;63135;-78
2022/01/03 07:07:35;;;;;;;6.40;1.60;;;;;;;8.80;83.49;100173.93;108471;1274;60585;-80
2022/01/03 07:12:32;;;;;;;14.70;2.40;;;;;;;8.82;83.06;100179.23;108334;1262;71458;-78
2022/01/03 07:20:11;;;;;;;13.30;3.10;;;;;;;8.89;82.79;100181.98;108557;1273;62572;-79
2022/01/03 07:22:40;;;;;;;16.30;3.70;;;;;;;8.90;82.68;100186.05;108597;1273;73288;-80
2022/01/03 07:25:08;;;;;;;11.00;1.90;;;;;;;8.92;82.78;100186.80;108376;1274;71065;-76
2022/01/03 07:27:35;;;;;;;10.20;1.80;;;;;;;8.94;82.41;100187.71;108380;1273;73970;-80
2022/01/03 07:30:04;;;;;;;9.00;1.80;;;;;;;8.95;82.25;100189.32;108565;1273;62386;-77
2022/01/03 07:32:30;;;;;;;13.60;2.00;;;;;;;8.95;82.45;100189.24;108501;1263;62665;-79
2022/01/03 07:34:57;;;;;;;11.00;2.60;;;;;;;8.95;81.88;100187.02;108616;1273;73409;-79
2022/01/03 07:37:24;;;;;;;16.70;2.90;;;;;;;8.95;81.75;100194.46;108583;1272;71596;-78
2022/01/03 07:39:52;;;;;;;15.00;2.20;;;;;;;8.95;82.01;100196.34;108605;1271;57448;-78
2022/01/03 07:42:18;;;;;;;13.40;2.20;;;;;;;8.95;81.64;100196.23;108612;1272;61155;-78
2022/01/03 07:44:45;;;;;;;11.00;2.20;;;;;;;8.94;81.67;100196.97;108510;1273;60933;-79
2022/01/03 07:47:12;;;;;;;17.30;2.90;;;;;;;8.95;81.80;100201.70;108539;1273;77090;-80
2022/01/03 07:49:38;;;;;;;8.80;2.30;;;;;;;8.96;82.12;100205.45;108562;1274;70686;-80
2022/01/03 07:52:05;;;;;;;10.30;2.30;;;;;;;8.96;82.17;100211.23;108837;1262;140502;-75
2022/01/03 07:54:32;;;;;;;9.50;2.40;;;;;;;8.95;81.67;100212.57;108498;1273;63107;-77
2022/01/03 07:57:00;;;;;;;6.10;2.20;;;;;;;8.99;81.64;100213.61;108584;1273;60616;-78
2022/01/03 07:59:29;;;;;;;15.20;2.70;;;;;;;9.00;81.45;100213.71;108569;1273;59177;-78
2022/01/03 08:01:57;;;;;;;27.10;9.70;;;;;;;9.01;81.43;100214.42;108553;1273;72341;-77
2022/01/03 08:04:24;;;;;;;10.10;2.80;;;;;;;9.02;81.17;100214.68;108485;1273;74083;-77
2022/01/03 08:06:51;;;;;;;16.80;5.30;;;;;;;9.04;81.29;100213.58;108562;1273;58651;-77
2022/01/03 08:09:17;;;;;;;15.60;5.50;;;;;;;9.06;81.15;100209.29;108579;1273;60633;-77
2022/01/03 08:11:44;;;;;;;32.80;13.60;;;;;;;9.07;81.06;100211.30;108505;1274;75166;-76
2022/01/03 08:14:11;;;;;;;16.10;5.20;;;;;;;9.08;81.42;100213.15;108457;1274;71361;-77
2022/01/03 08:16:38;;;;;;;18.30;5.90;;;;;;;9.08;81.30;100217.91;108528;1273;72872;-76
2022/01/03 08:19:04;;;;;;;15.20;5.90;;;;;;;9.09;80.83;100222.69;108523;1274;62342;-76
2022/01/03 08:21:31;;;;;;;13.70;3.90;;;;;;;9.10;81.06;100216.05;108518;1274;58398;-77
2022/01/03 08:23:58;;;;;;;21.10;6.70;;;;;;;9.11;80.93;100223.17;108578;1273;74290;-76
2022/01/03 08:26:24;;;;;;;18.70;5.30;;;;;;;9.12;80.81;100220.92;108539;1273;71335;-77
2022/01/03 08:28:51;;;;;;;12.70;2.40;;;;;;;9.14;80.91;100219.66;108572;1273;73007;-77
2022/01/03 08:31:18;;;;;;;13.50;2.60;;;;;;;9.15;80.80;100216.33;108546;1273;63048;-77
2022/01/03 08:33:45;;;;;;;13.40;2.20;;;;;;;9.15;81.09;100217.31;108418;1274;60093;-77
2022/01/03 08:36:11;;;;;;;15.70;3.30;;;;;;;9.16;80.76;100212.73;108379;1274;74600;-77
2022/01/03 08:38:38;;;;;;;20.70;9.50;;;;;;;9.15;81.12;100216.29;108472;1274;71298;-76
2022/01/03 08:41:06;;;;;;;15.60;4.50;;;;;;;9.13;81.04;100212.80;108332;1276;71734;-76
2022/01/03 08:43:33;;;;;;;17.60;4.30;;;;;;;9.15;81.12;100213.98;108404;1276;63356;-76
2022/01/03 08:46:09;;;;;;;21.00;6.50;;;;;;;9.18;80.71;100211.34;108421;1274;60572;-76
2022/01/03 08:48:36;;;;;;;15.70;4.30;;;;;;;9.24;80.33;100204.74;108450;1274;74073;-77
2022/01/03 08:51:02;;;;;;;13.40;2.80;;;;;;;9.25;80.14;100209.66;108162;1274;71404;-77
2022/01/03 08:53:32;;;;;;;23.30;6.80;;;;;;;9.28;80.11;100207.58;108465;1274;72692;-77
2022/01/03 08:55:59;;;;;;;15.10;5.50;;;;;;;9.31;79.46;100213.23;108260;1274;62217;-77
2022/01/03 08:58:26;;;;;;;8.70;2.20;;;;;;;9.34;79.01;100205.79;108450;1273;60588;-77
2022/01/03 09:00:53;;;;;;;16.50;4.40;;;;;;;9.37;79.57;100209.51;108282;1274;74100;-76
2022/01/03 09:03:20;;;;;;;17.20;4.90;;;;;;;9.39;79.00;100207.00;108489;1274;70335;-76
2022/01/03 09:05:49;;;;;;;21.40;8.60;;;;;;;9.42;78.37;100206.39;108044;1276;72411;-77
2022/01/03 09:08:17;;;;;;;10.30;2.70;;;;;;;9.45;78.24;100206.85;108437;1273;61715;-77
2022/01/03 09:10:43;;;;;;;11.20;4.10;;;;;;;9.49;78.02;100208.50;108308;1276;59649;-76
2022/01/03 09:13:11;;;;;;;21.90;6.50;;;;;;;9.54;78.12;100205.56;108435;1273;75151;-76
2022/01/03 09:15:38;;;;;;;13.20;6.20;;;;;;;9.61;77.49;100203.98;108428;1274;73026;-77
2022/01/03 09:18:09;;;;;;;18.00;6.30;;;;;;;9.64;76.98;100212.44;108415;1276;74039;-77
2022/01/03 09:20:36;;;;;;;15.70;6.20;;;;;;;9.67;76.82;100211.05;108466;1274;61462;-76
2022/01/03 09:23:10;;;;;;;13.40;5.10;;;;;;;9.70;76.77;100204.99;108411;1274;60680;-77
2022/01/03 09:30:51;;;;;;;13.10;4.80;;;;;;;9.75;76.58;100199.97;108512;1274;74003;-78
2022/01/03 09:33:19;;;;;;;15.70;5.10;;;;;;;9.72;76.05;100204.51;108426;1276;61516;-77
2022/01/03 09:35:51;;;;;;;15.90;4.10;;;;;;;9.71;76.03;100207.86;108512;1276;61740;-77
2022/01/03 09:38:25;;;;;;;12.40;3.20;;;;;;;9.70;75.89;100204.05;108571;1274;74069;-79
2022/01/03 09:41:01;;;;;;;15.60;3.70;;;;;;;9.74;75.68;100194.58;108559;1276;72394;-79
2022/01/03 09:43:40;;;;;;;7.80;2.30;;;;;;;9.77;75.44;100197.59;108540;1275;73181;-79
2022/01/03 09:46:10;;;;;;;7.40;3.00;;;;;;;9.79;75.30;100189.06;108541;1274;62274;-78
2022/01/03 09:48:42;;;;;;;13.70;5.00;;;;;;;9.82;74.88;100192.15;108434;1274;60659;-78
2022/01/03 09:51:11;;;;;;;9.30;2.20;;;;;;;9.83;74.78;100190.25;108465;1274;72912;-78
2022/01/03 09:53:40;;;;;;;15.80;5.60;;;;;;;9.83;74.28;100198.86;108428;1276;71516;-77
2022/01/03 09:56:07;;;;;;;14.30;4.00;;;;;;;9.83;74.60;100185.94;108444;1274;73283;-78
2022/01/03 09:58:34;;;;;;;10.00;2.80;;;;;;;9.85;74.91;100180.30;108544;1274;63019;-78
2022/01/03 10:01:01;;;;;;;12.10;3.80;;;;;;;9.86;74.89;100181.54;108461;1276;61075;-76
2022/01/03 10:03:28;;;;;;;16.30;4.00;;;;;;;9.91;74.68;100181.89;108441;1276;75036;-76
2022/01/03 10:05:55;;;;;;;15.70;6.00;;;;;;;9.94;74.26;100180.95;108467;1274;71570;-75
2022/01/03 10:08:22;;;;;;;13.00;3.70;;;;;;;9.93;74.44;100184.04;108462;1274;73016;-77
2022/01/03 10:10:51;;;;;;;14.20;4.10;;;;;;;9.91;74.51;100183.67;108175;1276;63322;-76
2022/01/03 10:13:21;;;;;;;6.90;2.20;;;;;;;9.87;74.17;100192.69;108548;1274;62073;-77
2022/01/03 10:15:48;;;;;;;13.00;2.40;;;;;;;9.84;74.72;100176.16;108410;1269;73636;-78
2022/01/03 10:18:19;;;;;;;8.60;2.50;;;;;;;9.82;74.56;100183.76;108623;1272;72253;-78
2022/01/03 10:20:47;;;;;;;14.90;4.20;;;;;;;9.84;74.75;100178.25;108517;1273;74174;-78
2022/01/03 10:23:17;;;;;;;5.80;2.60;;;;;;;9.91;74.79;100170.52;108628;1271;63461;-76
2022/01/03 10:25:46;;;;;;;10.90;2.30;;;;;;;9.99;74.33;100157.61;108582;1272;61671;-77
2022/01/03 10:28:37;;;;;;;9.70;3.50;;;;;;;10.10;74.44;100156.61;108572;1273;74084;-78
2022/01/03 10:31:24;;;;;;;8.90;2.80;;;;;;;10.19;73.42;100153.74;108678;1272;71253;-78
2022/01/03 10:34:07;;;;;;;11.00;3.60;;;;;;;10.26;73.22;100142.20;108590;1264;72984;-79
2022/01/03 10:36:37;;;;;;;6.40;2.10;;;;;;;10.29;73.18;100138.26;108647;1272;60590;-80
2022/01/03 10:39:32;;;;;;;7.70;1.80;;;;;;;10.27;72.62;100150.63;108577;1272;61543;-78
2022/01/03 10:42:21;;;;;;;9.00;2.10;;;;;;;10.31;72.81;100131.66;108589;1272;74772;-77
2022/01/03 10:44:48;;;;;;;10.40;2.00;;;;;;;10.33;72.90;100135.67;108610;1273;72572;-77
2022/01/03 10:47:31;;;;;;;9.50;2.10;;;;;;;10.34;72.49;100137.33;108654;1271;73975;-76
2022/01/03 10:49:57;;;;;;;9.80;2.40;;;;;;;10.36;72.77;100125.95;108315;1274;60691;-77
2022/01/03 10:52:28;;;;;;;4.00;1.90;;;;;;;10.37;72.55;100118.26;108556;1274;60538;-77
2022/01/03 10:55:13;;;;;;;8.90;2.90;;;;;;;10.41;72.72;100121.23;108629;1272;74628;-77
2022/01/03 10:57:52;;;;;;;5.60;1.60;;;;;;;10.44;72.09;100123.14;108628;1272;71359;-76
2022/01/03 11:00:45;;;;;;;8.20;2.70;;;;;;;10.47;71.82;100128.31;108631;1272;72384;-76
2022/01/03 11:05:51;;;;;;;10.30;2.40;;;;;;;10.54;70.44;100138.31;108580;1274;60517;-77
2022/01/03 11:11:06;;;;;;;6.20;2.30;;;;;;;10.54;71.12;100126.23;108603;1272;72722;-76
2022/01/03 11:13:38;;;;;;;8.10;2.00;;;;;;;10.52;71.05;100131.15;108645;1272;73818;-76
2022/01/03 11:16:07;;;;;;;10.00;2.00;;;;;;;10.54;70.82;100124.23;108473;1272;61101;-76
2022/01/03 11:18:38;;;;;;;9.90;3.70;;;;;;;10.56;70.67;100125.02;108544;1273;60412;-75
2022/01/03 11:21:21;;;;;;;6.90;1.80;;;;;;;10.58;70.34;100142.27;108633;1272;74314;-77
2022/01/03 11:24:00;;;;;;;6.00;2.10;;;;;;;10.60;70.51;100121.55;108464;1273;72545;-75
2022/01/03 11:26:30;;;;;;;7.70;1.80;;;;;;;10.67;70.64;100129.20;108559;1273;72885;-75
2022/01/03 11:29:05;;;;;;;8.70;2.40;;;;;;;10.84;70.55;100108.55;108543;1274;61836;-75
2022/01/03 11:31:33;;;;;;;9.90;2.20;;;;;;;11.10;70.08;100104.27;108639;1272;61081;-76
2022/01/03 11:34:01;;;;;;;7.70;1.70;;;;;;;11.23;69.84;100106.48;108352;1273;74479;-76
2022/01/03 11:36:49;;;;;;;7.70;2.30;;;;;;;11.40;68.96;100099.98;108589;1273;73389;-76
2022/01/03 11:39:20;;;;;;;12.80;2.30;;;;;;;11.41;68.40;100094.30;108400;1273;73961;-77
2022/01/03 11:41:55;;;;;;;7.20;2.50;;;;;;;11.43;68.29;100089.45;108599;1273;60394;-77
2022/01/03 11:44:22;;;;;;;4.20;1.80;;;;;;;11.49;67.47;100102.65;108575;1273;61837;-77
2022/01/03 11:46:48;;;;;;;12.10;2.20;;;;;;;11.49;67.37;100094.52;108512;1274;75189;-76
2022/01/03 11:49:17;;;;;;;6.50;2.20;;;;;;;11.59;67.12;100102.30;108511;1273;71412;-76
2022/01/03 11:51:44;;;;;;;6.00;2.00;;;;;;;11.57;66.79;100091.83;108588;1273;74152;-76
2022/01/03 11:54:14;;;;;;;7.90;2.20;;;;;;;11.58;66.80;100083.95;108392;1274;60590;-75
2022/01/03 11:56:46;;;;;;;8.60;1.80;;;;;;;11.47;67.18;100076.65;108585;1273;59788;-76
2022/01/03 12:04:58;;;;;;;5.70;2.00;;;;;;;11.10;68.54;100066.86;108543;1273;74924;-76
2022/01/03 12:07:26;;;;;;;8.30;1.70;;;;;;;11.00;68.81;100066.88;108514;1273;61038;-76
2022/01/03 12:10:07;;;;;;;8.50;2.20;;;;;;;10.99;68.83;100055.19;108649;1273;60576;-76
2022/01/03 12:12:36;;;;;;;7.10;1.80;;;;;;;10.96;69.31;100070.05;108569;1273;75291;-76
2022/01/03 12:15:05;;;;;;;9.40;2.40;;;;;;;10.94;68.67;100055.45;108621;1273;71649;-76
2022/01/03 12:17:42;;;;;;;8.40;1.70;;;;;;;11.10;68.53;100047.73;108571;1273;74181;-75
2022/01/03 12:20:09;;;;;;;7.40;1.70;;;;;;;11.26;67.88;100050.83;108562;1274;63091;-76
2022/01/03 12:22:54;;;;;;;6.80;1.90;;;;;;;11.36;67.38;100051.91;108589;1273;61703;-76
2022/01/03 12:25:35;;;;;;;4.90;1.80;;;;;;;11.41;67.54;100042.95;108500;1274;74139;-76
2022/01/03 12:28:10;;;;;;;10.30;2.00;;;;;;;11.44;67.50;100049.30;108528;1273;72546;-76